Weather at Nis Airport

Public forecast

Using degrees Celsius for public forecast. Weather courtesy of forecast.io.

Current aviation weather report (METAR) for Nis Airport

Retrieved 2022/07/04 02:30 UTC (17 minutes ago):

LYNI 040230Z VRB02KT CAVOK 20/18 Q1016 NOSIG

Aviation forecast (TAF) for Nis Airport

Retrieved 2022-07-04 00:21 UTC (2 hours ago):

TAF LYNI 032300Z 0400/0424 08005KT CAVOK TX34/0413Z TN19/0403Z TEMPO 0413/0417 VRB15G25KT 5000 TSRA SCT035CB SCT040